createdAt,value
2019-04-05T03:27:36.112Z,15.10
2019-04-05T03:28:36.118Z,21.60
2019-04-05T03:29:36.070Z,24.50
2019-04-05T03:30:37.148Z,25.60
2019-04-05T03:31:36.103Z,25.40
2019-04-05T03:32:36.136Z,27.10
2019-04-05T03:33:36.124Z,26.80
2019-04-05T03:34:36.104Z,26.90
2019-04-05T03:35:36.207Z,25.50
2019-04-05T03:36:36.201Z,25.90
2019-04-05T03:37:36.172Z,24.80
2019-04-05T03:38:36.240Z,25.50
2019-04-05T03:39:36.816Z,25.60
2019-04-05T03:40:36.878Z,26.00
2019-04-05T03:41:37.049Z,27.40
2019-04-05T03:42:36.237Z,27.10
2019-04-05T03:43:36.296Z,26.10
2019-04-05T03:44:36.645Z,27.30
2019-04-05T03:45:36.553Z,26.30
2019-04-05T03:46:36.318Z,26.90
2019-04-05T03:47:36.409Z,24.80
2019-04-05T03:48:36.324Z,26.60
2019-04-05T03:49:35.905Z,26.20
2019-04-05T03:50:35.931Z,27.60
2019-04-05T03:51:35.849Z,25.60
2019-04-05T03:52:35.896Z,26.60
2019-04-05T03:53:35.773Z,27.30
2019-04-05T03:54:35.854Z,26.60
2019-04-05T03:55:35.877Z,25.60
2019-04-05T03:56:38.239Z,26.90
2019-04-05T03:57:35.999Z,26.70
2019-04-05T03:58:35.837Z,26.50
2019-04-05T03:59:35.797Z,25.30
2019-04-05T04:00:35.850Z,26.80
2019-04-05T04:01:35.961Z,25.70
2019-04-05T04:02:35.991Z,26.20
2019-04-05T04:03:36.111Z,26.10
2019-04-05T04:04:35.995Z,26.00
2019-04-05T04:05:35.977Z,26.30
2019-04-05T04:06:36.030Z,25.90
2019-04-05T04:07:35.911Z,26.70
2019-04-05T04:08:36.006Z,27.00
2019-04-05T04:09:36.103Z,26.60
2019-04-05T04:10:35.902Z,25.40
2019-04-05T04:11:36.104Z,25.80
2019-04-05T04:12:36.094Z,27.50
2019-04-05T04:13:36.022Z,25.20
2019-04-05T04:14:36.019Z,26.40
2019-04-05T04:15:36.130Z,25.70
2019-04-05T04:17:36.095Z,27.10
2019-04-05T04:18:36.150Z,27.20
2019-04-05T04:19:36.275Z,26.90
2019-04-05T04:20:36.216Z,26.70
2019-04-05T04:21:36.090Z,26.50
2019-04-05T04:22:36.943Z,26.20
2019-04-05T04:23:36.274Z,27.00
2019-04-05T04:24:36.285Z,26.30
2019-04-05T04:25:36.276Z,26.10
2019-04-05T04:26:36.185Z,25.70
2019-04-05T04:27:36.245Z,26.50
2019-04-05T04:28:36.117Z,27.00
2019-04-05T04:29:36.328Z,26.00
2019-04-05T04:30:36.384Z,25.30
2019-04-05T04:31:36.305Z,26.30
2019-04-05T04:32:36.222Z,26.60
2019-04-05T04:33:36.354Z,26.90
2019-04-05T04:34:36.194Z,25.80
2019-04-05T04:35:36.320Z,27.40
2019-04-05T04:36:36.355Z,25.50
2019-04-05T04:37:36.379Z,26.20
2019-04-05T04:38:36.439Z,26.90
2019-04-05T04:39:36.460Z,26.60
2019-04-05T04:40:36.491Z,26.90
2019-04-05T04:41:36.712Z,25.20
2019-04-05T04:42:36.345Z,25.10
2019-04-05T04:43:36.610Z,26.80
2019-04-05T04:44:36.380Z,25.50
2019-04-05T04:45:36.520Z,24.90
2019-04-05T04:46:36.508Z,24.20
2019-04-05T04:47:36.547Z,25.30
2019-04-05T04:48:36.560Z,25.80
2019-04-05T04:49:36.476Z,24.80
2019-04-05T04:50:36.668Z,24.60
2019-04-05T04:51:36.530Z,25.90
2019-04-05T04:52:36.550Z,26.40
2019-04-05T04:53:36.815Z,26.10
2019-04-05T04:54:36.679Z,25.80
2019-04-05T04:55:36.707Z,26.60
2019-04-05T04:56:36.516Z,28.00
2019-04-05T04:57:36.524Z,26.60
2019-04-05T04:58:36.619Z,27.30
2019-04-05T04:59:37.519Z,27.90
2019-04-05T05:00:36.526Z,26.90
2019-04-05T05:01:36.566Z,27.40
2019-04-05T05:02:36.533Z,26.90
2019-04-05T05:03:36.575Z,26.90
2019-04-05T05:04:36.541Z,27.00
2019-04-05T05:05:36.539Z,27.20
2019-04-05T05:06:36.614Z,26.50
2019-04-05T05:07:36.622Z,26.80
2019-04-05T05:08:37.500Z,25.90
2019-04-05T05:09:37.685Z,25.90
2019-04-05T05:11:37.428Z,25.40
2019-04-05T05:12:36.812Z,26.10
2019-04-05T05:13:36.807Z,25.00
2019-04-05T05:14:36.651Z,24.60
2019-04-05T05:15:36.939Z,25.40
2019-04-05T05:16:38.290Z,25.00
2019-04-05T05:17:38.605Z,25.50
2019-04-05T05:18:37.555Z,26.00
2019-04-05T05:19:37.419Z,27.40
2019-04-05T05:20:37.768Z,25.90
2019-04-05T05:21:39.982Z,26.40
2019-04-05T05:22:38.775Z,28.20
2019-04-05T05:31:21.977Z,27.50
2019-04-05T05:34:14.542Z,26.10
2019-04-05T05:35:12.181Z,25.40
2019-04-05T05:36:11.475Z,26.30
2019-04-05T05:37:11.451Z,26.40
2019-04-05T05:38:11.908Z,25.60
2019-04-05T05:39:13.111Z,25.90
2019-04-05T05:40:11.661Z,27.00
2019-04-05T05:41:11.685Z,26.60
2019-04-05T05:42:11.333Z,27.30
2019-04-05T05:43:12.090Z,27.30
2019-04-05T05:44:12.359Z,26.90
2019-04-05T05:45:12.261Z,27.00
2019-04-05T05:46:12.052Z,26.40
2019-04-05T05:47:11.386Z,27.30
2019-04-05T05:48:11.926Z,26.80
2019-04-05T05:49:12.721Z,26.50
2019-04-05T05:50:12.551Z,26.80
2019-04-05T05:51:13.753Z,28.10
2019-04-05T05:52:20.800Z,27.60
2019-04-05T05:53:23.008Z,26.80
2019-04-05T05:54:15.532Z,26.80
2019-04-05T06:00:31.091Z,26.00
2019-04-05T06:01:30.305Z,26.90
2019-04-05T06:02:30.141Z,26.60
2019-04-05T06:03:29.823Z,27.00
2019-04-05T06:04:30.425Z,26.80
2019-04-05T06:05:31.540Z,26.40
2019-04-05T06:06:31.789Z,27.30
2019-04-05T06:07:39.041Z,26.60
2019-04-05T06:10:19.188Z,25.90
2019-04-05T06:11:17.146Z,25.80
2019-04-05T06:12:22.686Z,26.00
2019-04-05T06:13:17.674Z,25.60
2019-04-05T06:14:18.084Z,26.60
2019-04-05T06:15:18.095Z,26.10
2019-04-05T06:16:20.784Z,25.20
2019-04-05T06:17:18.149Z,25.00
2019-04-05T06:18:17.752Z,25.50
2019-04-05T06:19:16.684Z,25.00
2019-04-05T06:20:20.480Z,25.10
2019-04-05T06:22:20.287Z,26.40
2019-04-05T06:23:32.606Z,27.00
2019-04-05T06:24:20.452Z,25.60
2019-04-05T06:29:22.169Z,26.70
2019-04-05T06:30:22.272Z,26.60
2019-04-05T06:31:24.856Z,26.50
2019-04-05T06:32:22.174Z,25.90
2019-04-05T06:33:31.337Z,25.10
2019-04-05T06:34:24.732Z,24.30
2019-04-05T06:35:23.930Z,24.40
2019-04-05T06:36:23.237Z,26.20
2019-04-05T06:40:24.808Z,24.20
2019-04-05T06:41:18.562Z,24.00
2019-04-05T06:59:57.974Z,25.10
2019-04-05T07:01:01.311Z,24.80
2019-04-05T07:03:00.126Z,25.20
2019-04-05T07:04:00.195Z,24.60
2019-04-05T07:04:57.480Z,24.30
2019-04-05T07:05:57.448Z,24.40
2019-04-05T07:06:57.465Z,23.90
2019-04-05T07:07:57.552Z,24.70
2019-04-05T07:08:57.567Z,24.60
2019-04-05T07:09:57.585Z,23.80
2019-04-05T07:10:58.349Z,24.00
2019-04-05T07:11:57.602Z,24.20
2019-04-05T07:12:57.702Z,24.50
2019-04-05T07:13:57.573Z,23.00
2019-04-05T07:14:57.590Z,23.50
2019-04-05T07:15:57.683Z,23.60
2019-04-05T07:16:57.650Z,22.80
2019-04-05T07:17:57.644Z,23.80
2019-04-05T07:18:57.661Z,22.50
2019-04-05T07:19:57.743Z,22.10
2019-04-05T07:20:58.077Z,21.80
2019-04-05T07:21:57.733Z,21.60
2019-04-05T07:23:57.740Z,22.00
2019-04-05T07:24:57.827Z,23.00
2019-04-05T07:25:57.779Z,21.50
2019-04-05T07:26:57.797Z,21.80
2019-04-05T07:27:57.806Z,23.70
2019-04-05T07:28:57.830Z,22.70
2019-04-05T07:29:57.863Z,20.30
2019-04-05T07:30:57.913Z,19.50
2019-04-05T07:31:57.879Z,20.90
2019-04-05T07:32:58.784Z,20.60
2019-04-05T07:33:57.950Z,22.00
2019-04-05T07:34:57.934Z,22.50
2019-04-05T07:35:57.952Z,22.00
2019-04-05T07:36:58.090Z,22.00
2019-04-05T07:37:57.978Z,21.30
2019-04-05T07:38:58.003Z,21.10
2019-04-05T07:39:58.037Z,19.70
2019-04-05T07:40:58.061Z,19.50
2019-04-05T07:41:58.121Z,20.00
2019-04-05T07:42:58.134Z,20.20
2019-04-05T07:43:58.081Z,20.10
2019-04-05T07:44:58.101Z,21.20
2019-04-05T07:45:58.116Z,19.60
2019-04-05T07:46:58.150Z,19.40
2019-04-05T07:47:58.182Z,21.50
2019-04-05T07:48:58.169Z,22.20
2019-04-05T07:49:58.275Z,21.40
2019-04-05T07:50:58.782Z,21.50
2019-04-05T07:51:58.211Z,19.50
2019-04-05T07:52:58.233Z,20.30
2019-04-05T07:53:58.245Z,19.90
2019-04-05T07:54:58.270Z,20.70
2019-04-05T07:55:58.287Z,20.90
2019-04-05T07:56:58.361Z,20.00
2019-04-05T07:57:58.304Z,20.30
2019-04-05T07:58:58.734Z,20.30
2019-04-05T07:59:58.686Z,21.00
2019-04-05T08:01:01.612Z,21.10
2019-04-05T08:02:00.240Z,20.70
2019-04-05T08:02:58.928Z,20.00
2019-04-05T08:03:59.181Z,20.00
2019-04-05T08:04:59.062Z,20.40
2019-04-05T08:05:59.380Z,20.10
2019-04-05T08:06:59.632Z,18.70
2019-04-05T08:07:59.446Z,16.50
2019-04-05T08:09:01.985Z,16.30
2019-04-05T08:09:59.493Z,16.60
2019-04-05T08:10:59.303Z,14.40
2019-04-05T08:11:59.059Z,14.70
2019-04-05T08:12:58.938Z,14.90
2019-04-05T08:13:58.888Z,16.60
2019-04-05T08:14:58.787Z,16.60
2019-04-05T08:16:01.193Z,16.30
2019-04-05T08:16:59.655Z,15.10
2019-04-05T08:17:59.339Z,13.10
2019-04-05T08:19:04.261Z,13.30
2019-04-05T08:19:59.360Z,13.30
2019-04-05T08:21:00.621Z,12.30
2019-04-05T08:22:00.326Z,10.70
2019-04-05T08:22:59.527Z,11.30
2019-04-05T08:24:00.157Z,12.40
2019-04-05T08:24:59.907Z,12.70
2019-04-05T08:25:59.815Z,13.70
2019-04-05T08:26:59.571Z,13.00
2019-04-05T08:27:59.051Z,12.80
2019-04-05T08:28:59.398Z,11.50
2019-04-05T08:30:00.743Z,12.90
2019-04-05T08:31:00.380Z,13.70
2019-04-05T08:31:59.271Z,13.80
2019-04-05T08:32:59.489Z,14.10
2019-04-05T08:34:00.187Z,13.90
2019-04-05T08:35:01.045Z,13.60
2019-04-05T08:35:59.751Z,14.20
2019-04-05T08:37:00.660Z,14.90
2019-04-05T08:37:59.383Z,13.50
2019-04-05T08:39:00.221Z,12.90
2019-04-05T08:40:00.532Z,13.10
2019-04-05T08:41:00.046Z,12.00
2019-04-05T08:42:00.578Z,11.80
2019-04-05T08:42:59.331Z,11.10
2019-04-05T08:43:59.351Z,11.50
2019-04-05T08:45:01.220Z,10.90
2019-04-05T08:45:59.557Z,11.80
2019-04-05T08:46:59.831Z,12.30
2019-04-05T08:47:59.630Z,12.30
2019-04-05T08:49:09.983Z,13.00
2019-04-05T08:49:59.452Z,12.90
2019-04-05T08:51:00.845Z,13.80
2019-04-05T08:52:00.820Z,14.00
2019-04-05T08:53:01.413Z,14.00
2019-04-05T08:54:00.019Z,14.80
2019-04-05T08:55:00.287Z,15.60
2019-04-05T08:55:59.995Z,17.00
2019-04-05T08:57:00.742Z,15.30
2019-04-05T08:58:03.138Z,16.20
2019-04-05T08:59:09.143Z,15.10
2019-04-05T09:00:00.332Z,15.60
2019-04-05T09:01:00.919Z,16.60
2019-04-05T09:02:05.203Z,15.70
2019-04-05T09:03:07.516Z,15.70
2019-04-05T09:04:00.448Z,15.70
2019-04-05T09:04:59.793Z,15.50
2019-04-05T09:06:03.956Z,15.40
2019-04-05T09:07:01.872Z,16.00
2019-04-05T09:08:00.336Z,15.90
2019-04-05T09:37:41.759Z,15.00
2019-04-05T09:38:14.439Z,13.70
2019-04-05T09:40:48.364Z,12.80
2019-04-05T09:42:02.932Z,12.70
2019-04-05T09:42:47.632Z,13.10
2019-04-05T09:44:03.437Z,11.40
2019-04-05T10:05:32.404Z,11.50
2019-04-05T10:06:28.724Z,15.60
2019-04-05T10:07:28.954Z,16.20
2019-04-05T10:29:13.886Z,22.10
2019-04-05T10:30:00.227Z,22.30
2019-04-05T10:30:59.765Z,20.60
2019-04-05T10:32:01.638Z,20.70
2019-04-05T10:33:01.335Z,20.60
2019-04-05T10:34:01.779Z,20.60
2019-04-05T12:15:21.534Z,23.90
2019-04-05T12:16:20.862Z,23.20
2019-04-05T12:17:20.821Z,21.10
2019-04-05T12:18:20.857Z,19.50
2019-04-05T12:19:20.878Z,19.00
2019-04-05T12:20:20.900Z,19.90
2019-04-05T12:21:21.026Z,20.30
2019-04-05T12:22:22.255Z,20.50
2019-04-05T12:23:20.954Z,21.00
2019-04-05T12:24:20.937Z,21.20
2019-04-05T12:25:21.503Z,20.60
2019-04-05T12:26:21.068Z,20.30
2019-04-05T12:27:21.063Z,20.60
2019-04-05T12:28:21.080Z,22.10
2019-04-05T12:29:21.602Z,25.60
2019-04-05T12:30:21.032Z,24.70
2019-04-05T12:31:21.085Z,24.70
2019-04-05T12:32:32.904Z,25.10
2019-04-05T12:33:20.788Z,23.80
2019-04-05T12:34:22.228Z,25.10
2019-04-05T12:35:21.624Z,23.80
2019-04-05T12:36:22.732Z,23.40
2019-04-05T12:37:22.113Z,22.10
2019-04-05T12:38:28.378Z,21.50
2019-04-05T12:39:21.231Z,20.60
2019-04-05T12:40:21.521Z,20.60
2019-04-05T12:41:21.244Z,21.00
2019-04-05T12:42:22.149Z,20.30
2019-04-05T12:43:21.297Z,20.10
2019-04-05T12:44:21.394Z,17.60
2019-04-05T12:45:22.142Z,17.40
2019-04-05T12:46:21.040Z,18.70
2019-04-05T12:47:21.331Z,18.50
2019-04-05T12:48:21.436Z,18.20
2019-04-05T12:49:21.392Z,17.90
2019-04-05T12:50:22.264Z,16.70
2019-04-05T12:51:21.395Z,17.00
2019-04-05T12:52:22.884Z,17.30
2019-04-05T12:53:21.493Z,18.30
2019-04-05T12:54:21.393Z,15.30
2019-04-05T12:55:23.856Z,15.80
2019-04-05T12:56:21.435Z,16.80
2019-04-05T12:57:21.550Z,18.20
2019-04-05T12:58:25.487Z,18.40
2019-04-05T12:59:21.549Z,20.20
2019-04-05T13:00:21.259Z,21.40
2019-04-05T13:01:21.609Z,21.10
2019-04-05T13:02:32.956Z,21.40
2019-04-05T13:03:21.217Z,21.60
2019-04-05T13:04:21.355Z,23.60
2019-04-05T13:05:21.725Z,22.90
2019-04-05T13:06:21.747Z,23.00
2019-04-05T13:07:22.801Z,22.20
2019-04-05T13:08:23.574Z,22.90
2019-04-05T13:09:21.408Z,23.80
2019-04-05T13:10:25.131Z,23.10
2019-04-05T13:11:21.169Z,23.00
2019-04-05T13:12:21.166Z,22.70
2019-04-05T13:13:21.171Z,22.80
2019-04-05T13:14:21.230Z,22.60
2019-04-05T13:15:21.174Z,22.90
2019-04-05T13:16:21.205Z,22.10
2019-04-05T13:17:21.238Z,22.20
2019-04-05T13:18:21.226Z,23.10
2019-04-05T13:19:21.244Z,22.30
2019-04-05T13:20:21.269Z,22.60
2019-04-05T13:21:26.054Z,22.20
2019-04-05T13:22:22.804Z,22.00
2019-04-05T13:23:21.333Z,22.20
2019-04-05T13:24:21.321Z,22.40
2019-04-05T13:25:23.018Z,22.60
2019-04-05T13:26:21.390Z,22.00
2019-04-05T13:27:21.372Z,23.00
2019-04-05T13:28:21.431Z,22.60
2019-04-05T13:29:21.410Z,21.80
2019-04-05T13:30:21.457Z,23.40
2019-04-05T13:31:21.465Z,23.60
2019-04-05T13:32:22.487Z,23.90
2019-04-05T13:33:21.609Z,23.80
2019-04-05T13:34:23.477Z,23.20
2019-04-05T13:35:22.068Z,24.80
2019-04-05T13:36:21.522Z,24.50
2019-04-05T13:37:21.566Z,23.70
2019-04-05T13:38:21.583Z,22.40
2019-04-05T13:39:21.572Z,22.40
2019-04-05T13:40:21.623Z,20.60
2019-04-05T13:41:21.606Z,20.60
2019-04-05T13:42:21.638Z,20.10
2019-04-05T13:43:23.631Z,19.80
2019-04-05T13:44:21.652Z,20.30
2019-04-05T13:45:21.667Z,20.60
2019-04-05T13:46:24.506Z,21.90
2019-04-05T13:47:21.751Z,21.90
2019-04-05T13:48:21.796Z,23.10
2019-04-05T13:49:21.774Z,24.10
2019-04-05T13:50:21.811Z,24.00
2019-04-05T13:51:27.823Z,23.80
2019-04-05T13:52:21.815Z,23.80
2019-04-05T13:53:21.807Z,23.80
2019-04-05T13:54:21.868Z,23.10
2019-04-05T13:55:21.837Z,20.90
2019-04-05T13:56:21.888Z,22.10
2019-04-05T13:57:21.866Z,21.40
2019-04-05T13:58:21.935Z,19.90
2019-04-05T13:59:21.903Z,20.00
2019-04-05T14:00:21.931Z,18.80
2019-04-05T14:01:21.935Z,19.20
2019-04-05T14:02:21.984Z,19.20
2019-04-05T14:03:21.991Z,19.20
2019-04-05T14:04:22.071Z,20.20
2019-04-05T14:05:22.698Z,20.80
2019-04-05T14:06:22.034Z,21.30
2019-04-05T14:07:24.490Z,20.30
2019-04-05T14:08:22.056Z,19.40
2019-04-05T14:09:22.117Z,20.50
2019-04-05T14:10:22.098Z,20.60
2019-04-05T14:11:22.099Z,21.50
2019-04-05T14:12:22.137Z,20.20
2019-04-05T14:13:22.159Z,20.50
2019-04-05T14:14:22.146Z,20.50
2019-04-05T14:15:22.163Z,19.80
2019-04-05T14:16:22.178Z,19.20
2019-04-05T14:17:22.198Z,19.40
2019-04-05T14:18:22.218Z,19.60
2019-04-05T14:19:22.295Z,19.10
2019-04-05T14:20:24.428Z,18.80
2019-04-05T14:21:22.527Z,19.60
2019-04-05T14:22:22.975Z,19.50
2019-04-05T14:23:23.933Z,20.30
2019-04-05T14:24:23.441Z,19.20
2019-04-05T14:25:23.451Z,19.40
2019-04-05T14:26:22.344Z,18.60
2019-04-05T14:27:22.380Z,18.50
2019-04-05T14:28:22.383Z,19.00
2019-04-05T14:29:22.432Z,19.10
2019-04-05T14:30:22.420Z,19.00
2019-04-05T14:31:22.466Z,18.60
2019-04-05T14:32:22.487Z,18.70
2019-04-05T14:33:24.545Z,19.30
2019-04-05T14:34:23.772Z,18.50
2019-04-05T14:35:24.525Z,18.70
2019-04-05T14:36:23.518Z,19.60
2019-04-05T14:37:24.974Z,19.30
2019-04-05T14:38:23.143Z,19.00
2019-04-05T14:39:22.948Z,19.70
2019-04-05T14:40:22.569Z,18.50
2019-04-05T14:41:22.614Z,18.90
2019-04-05T14:42:22.604Z,18.90
2019-04-05T14:43:22.656Z,18.00
2019-04-05T14:44:22.654Z,18.80
2019-04-05T14:45:22.679Z,18.70
2019-04-05T14:46:22.694Z,18.40
2019-04-05T14:47:22.707Z,18.90
2019-04-05T14:48:22.757Z,18.00
2019-04-05T14:49:22.714Z,19.30
2019-04-05T14:50:22.729Z,19.70
2019-04-05T14:51:22.744Z,19.30
2019-04-05T14:52:25.466Z,19.10
2019-04-05T14:53:22.825Z,19.40
2019-04-05T14:54:22.827Z,18.90
2019-04-05T14:55:22.808Z,19.20
2019-04-05T14:56:22.825Z,19.00
2019-04-05T14:57:22.840Z,19.70
2019-04-05T14:58:22.863Z,19.80
2019-04-05T14:59:22.874Z,20.20
2019-04-05T15:00:22.897Z,20.30
2019-04-05T15:01:22.992Z,20.80
2019-04-05T15:02:22.921Z,20.70
2019-04-05T15:03:23.012Z,22.70
2019-04-05T15:04:22.954Z,22.40
2019-04-05T15:05:23.036Z,21.90
2019-04-05T15:06:23.060Z,23.00
2019-04-05T15:07:23.050Z,21.30
2019-04-05T15:08:23.084Z,21.30
2019-04-05T15:09:25.553Z,22.00
2019-04-05T15:10:24.832Z,22.20
2019-04-05T15:11:23.070Z,22.40
2019-04-05T15:12:23.114Z,21.30
2019-04-05T15:13:23.096Z,20.90
2019-04-05T15:14:23.152Z,21.20
2019-04-05T15:15:23.129Z,21.80
2019-04-05T15:16:23.459Z,21.30
2019-04-05T15:17:23.207Z,22.80
2019-04-05T15:18:24.497Z,23.20
2019-04-05T15:19:23.190Z,23.10
2019-04-05T15:20:23.225Z,23.20
2019-04-05T15:21:23.286Z,23.60
2019-04-05T15:22:23.273Z,23.60
2019-04-05T15:23:23.251Z,24.10
2019-04-05T15:24:23.268Z,23.70
2019-04-05T15:25:23.297Z,23.30
2019-04-05T15:26:23.319Z,23.20
2019-04-05T15:27:23.363Z,23.00
2019-04-05T15:28:24.552Z,23.50
2019-04-05T15:29:25.864Z,23.30
2019-04-05T15:30:25.492Z,24.40
2019-04-05T15:31:25.615Z,24.20
2019-04-05T15:32:25.462Z,23.30
2019-04-05T15:33:23.463Z,23.70
2019-04-05T15:34:23.430Z,23.30
2019-04-05T15:35:23.501Z,22.70
2019-04-05T15:36:23.445Z,23.00
2019-04-05T15:37:23.462Z,22.70
2019-04-05T15:38:23.556Z,24.10
2019-04-05T15:39:23.500Z,24.10
2019-04-05T15:40:23.512Z,23.70
2019-04-05T15:41:23.580Z,23.70
2019-04-05T15:42:23.547Z,23.00
2019-04-05T15:43:23.579Z,21.90
2019-04-05T15:44:23.572Z,22.80
2019-04-05T15:45:23.627Z,23.20
2019-04-05T15:46:23.605Z,22.90
2019-04-05T15:47:23.955Z,23.70
2019-04-05T15:48:23.647Z,22.70
2019-04-05T15:49:23.650Z,22.80
2019-04-05T15:50:23.709Z,23.90
2019-04-05T15:51:24.853Z,23.00
2019-04-05T15:52:27.820Z,23.60
2019-04-05T15:53:23.731Z,22.70
2019-04-05T15:54:23.728Z,23.00
2019-04-05T15:55:23.743Z,22.90
2019-04-05T15:56:23.783Z,22.50
2019-04-05T15:57:23.841Z,23.00
2019-04-05T15:58:23.957Z,22.10
2019-04-05T15:59:23.814Z,22.10
2019-04-05T16:00:25.930Z,22.30
2019-04-05T16:01:23.826Z,22.00
2019-04-05T16:02:23.843Z,22.20
2019-04-05T16:03:23.922Z,21.30
2019-04-05T16:04:23.896Z,20.80
2019-04-05T16:05:23.949Z,21.80
2019-04-05T16:06:23.969Z,21.80
2019-04-05T16:07:23.946Z,22.50
2019-04-05T16:08:24.010Z,23.10
2019-04-05T16:09:23.954Z,23.60
2019-04-05T16:10:23.967Z,23.00
2019-04-05T16:11:24.028Z,24.20
2019-04-05T16:12:24.074Z,23.90
2019-04-05T16:13:24.011Z,24.40
2019-04-05T16:14:24.043Z,24.60
2019-04-05T16:15:24.058Z,24.20
2019-04-05T16:16:24.047Z,24.80
2019-04-05T16:17:24.063Z,23.80
2019-04-05T16:18:24.108Z,23.10
2019-04-05T16:19:24.099Z,24.00
2019-04-05T16:20:24.115Z,24.20
2019-04-05T16:21:24.125Z,24.00
2019-04-05T16:22:31.194Z,24.20
2019-04-05T16:23:24.183Z,23.70
2019-04-05T16:24:24.176Z,24.30
2019-04-05T16:25:24.218Z,24.40
2019-04-05T16:26:24.212Z,24.90
2019-04-05T16:27:24.305Z,24.80
2019-04-05T16:28:24.302Z,25.20
2019-04-05T16:29:24.241Z,25.20
2019-04-05T16:30:24.254Z,25.50
2019-04-05T16:31:24.326Z,25.90
2019-04-05T16:32:24.320Z,25.90
2019-04-05T16:33:24.303Z,26.30
2019-04-05T16:34:24.340Z,26.30
2019-04-05T16:35:24.336Z,26.30
2019-04-05T16:36:24.344Z,25.60
2019-04-05T16:37:24.393Z,27.40
2019-04-05T16:38:24.371Z,26.90
2019-04-05T16:39:24.422Z,27.50
2019-04-05T16:40:24.425Z,26.30
2019-04-05T16:41:24.458Z,25.20
2019-04-05T16:42:24.455Z,26.10
2019-04-05T16:43:24.478Z,25.90
2019-04-05T16:44:24.505Z,25.90
2019-04-05T16:45:24.499Z,26.30
2019-04-05T16:46:24.545Z,25.40
2019-04-05T16:47:24.505Z,24.50
2019-04-05T16:48:24.523Z,22.40
2019-04-05T16:49:24.607Z,22.00
2019-04-05T16:50:24.562Z,21.30
2019-04-05T16:51:24.586Z,21.50
2019-04-05T16:52:24.604Z,21.60
2019-04-05T16:53:24.705Z,20.50
2019-04-05T16:54:24.608Z,20.20
2019-04-05T16:55:24.628Z,19.50
2019-04-05T16:56:24.669Z,19.50
2019-04-05T16:57:24.644Z,19.70
2019-04-05T16:58:24.689Z,19.30
2019-04-05T16:59:24.722Z,19.80
2019-04-05T17:00:24.745Z,20.60
2019-04-05T17:01:27.379Z,19.70
2019-04-05T17:02:24.723Z,20.00
2019-04-05T17:03:24.782Z,19.90
2019-04-05T17:04:24.757Z,20.50
2019-04-05T17:05:24.757Z,20.20
2019-04-05T17:06:24.791Z,19.90
2019-04-05T17:07:24.784Z,19.20
2019-04-05T17:08:24.800Z,19.50
2019-04-05T17:09:24.837Z,19.70
2019-04-05T17:10:24.897Z,18.90
2019-04-05T17:11:24.850Z,19.10
2019-04-05T17:12:24.861Z,21.00
2019-04-05T17:13:24.880Z,21.00
2019-04-05T17:14:24.901Z,20.60
2019-04-05T17:15:24.921Z,21.60
2019-04-05T17:16:24.966Z,21.90
2019-04-05T17:17:24.968Z,21.60
2019-04-05T17:18:24.969Z,20.70
2019-04-05T17:19:24.957Z,20.00
2019-04-05T17:20:24.989Z,20.60
2019-04-05T17:21:24.989Z,20.90
2019-04-05T17:22:25.004Z,20.20
2019-04-05T17:23:25.093Z,20.90
2019-04-05T17:24:25.038Z,19.90
2019-04-05T17:25:25.053Z,20.10
2019-04-05T17:26:25.072Z,19.60
2019-04-05T17:27:25.117Z,20.40
2019-04-05T17:28:25.097Z,19.90
2019-04-05T17:29:25.111Z,20.50
2019-04-05T17:30:25.128Z,19.30
2019-04-05T17:31:25.131Z,19.60
2019-04-05T17:32:25.159Z,19.80
2019-04-05T17:33:25.184Z,19.50
2019-04-05T17:34:25.171Z,21.00
2019-04-05T17:35:25.182Z,19.50
2019-04-05T17:36:25.196Z,20.00
2019-04-05T17:37:26.619Z,20.00
2019-04-05T17:38:25.253Z,19.30
2019-04-05T17:39:25.250Z,19.80
2019-04-05T17:40:25.307Z,20.00
2019-04-05T17:41:25.315Z,20.20
2019-04-05T17:42:25.279Z,19.60
2019-04-05T17:43:25.407Z,20.70
2019-04-05T17:44:25.345Z,19.60
2019-04-05T17:45:25.328Z,19.60
2019-04-05T17:46:25.408Z,20.30
2019-04-05T17:47:25.360Z,20.00
2019-04-05T17:48:25.443Z,20.00
2019-04-05T17:49:25.395Z,20.30
2019-04-05T17:50:25.391Z,20.50
2019-04-05T17:51:25.429Z,19.80
2019-04-05T17:52:25.420Z,19.80
2019-04-05T17:53:25.482Z,20.70
2019-04-05T17:54:25.487Z,20.40
2019-04-05T17:55:25.585Z,20.90
2019-04-05T17:56:25.525Z,20.90
2019-04-05T17:57:25.520Z,20.90
2019-04-05T17:58:25.510Z,20.50
2019-04-05T17:59:25.555Z,20.30
2019-04-05T18:00:25.530Z,20.30
2019-04-05T18:01:25.625Z,19.90
2019-04-05T18:02:25.558Z,20.00
2019-04-05T18:03:25.583Z,19.70
2019-04-05T18:04:25.586Z,20.30
2019-04-05T18:05:25.601Z,21.20
2019-04-05T18:06:25.612Z,22.40
2019-04-05T18:07:25.632Z,18.80
2019-04-05T18:08:25.693Z,21.30
2019-04-05T18:09:27.286Z,22.40
2019-04-05T18:10:25.675Z,20.90
2019-04-05T18:11:25.748Z,23.20
2019-04-05T18:12:25.731Z,23.20
2019-04-05T18:13:25.713Z,19.40
2019-04-05T18:14:25.757Z,23.40
2019-04-05T18:15:26.642Z,21.20
2019-04-05T18:16:26.251Z,25.20
2019-04-05T18:17:26.593Z,24.70
2019-04-05T18:18:25.941Z,21.30
2019-04-05T18:19:26.003Z,22.80
2019-04-05T18:20:25.975Z,20.70
2019-04-05T18:21:25.978Z,21.90
2019-04-05T18:22:25.992Z,20.20
2019-04-05T18:23:26.160Z,21.70
2019-04-05T18:24:26.029Z,24.30
2019-04-05T18:25:26.125Z,26.20
2019-04-05T18:26:26.036Z,26.50
2019-04-05T18:27:26.432Z,20.90
2019-04-05T18:28:26.163Z,19.30
2019-04-05T18:29:25.975Z,21.60
2019-04-05T18:30:26.381Z,22.20
2019-04-05T18:31:30.609Z,21.20
2019-04-05T18:32:26.696Z,24.20
2019-04-05T18:33:26.789Z,22.90
2019-04-05T18:34:29.937Z,24.20
2019-04-05T18:35:29.263Z,23.00
2019-04-05T18:36:28.825Z,21.40
2019-04-05T18:37:26.158Z,25.10
2019-04-05T18:38:26.478Z,21.10
2019-04-05T18:39:27.161Z,24.30
2019-04-05T18:40:39.084Z,23.00
2019-04-05T18:41:27.099Z,23.30
2019-04-05T18:42:26.331Z,22.00
2019-04-05T18:43:30.490Z,22.40
2019-04-05T18:44:26.298Z,21.60
2019-04-05T18:45:26.867Z,22.30
2019-04-05T18:46:26.425Z,23.70
2019-04-05T18:47:26.280Z,22.10
2019-04-05T18:48:27.313Z,31.10
2019-04-05T18:50:26.651Z,22.50
2019-04-05T18:51:31.532Z,22.00
2019-04-05T18:52:28.319Z,22.00
2019-04-05T18:53:37.170Z,22.00
2019-04-05T18:54:28.415Z,22.90
2019-04-05T18:55:26.887Z,22.00
2019-04-05T18:56:28.190Z,22.10
2019-04-05T18:57:27.310Z,21.80
2019-04-05T18:58:27.269Z,22.90
2019-04-05T18:59:27.695Z,22.70
2019-04-05T19:00:27.179Z,23.00
2019-04-05T19:06:24.441Z,23.20
2019-04-05T19:07:23.660Z,24.20
2019-04-05T19:08:22.897Z,25.30
2019-04-05T19:09:29.580Z,26.70
2019-04-05T19:10:59.511Z,25.90
2019-04-05T19:11:46.860Z,26.30
2019-04-05T19:12:23.310Z,27.30
2019-04-05T19:13:21.927Z,26.30
2019-04-05T19:14:24.118Z,26.60
2019-04-05T19:15:21.910Z,27.70
